Time;durP1;ratioP1;P1;durP2;ratioP2;P2;SDS_P1;SDS_P2;PMS_P1;PMS_P2;Temp;Humidity;BMP_temperature;BMP_pressure;BME280_temperature;BME280_humidity;BME280_pressure;Samples;Min_cycle;Max_cycle;Signal;HPM_P1;HPM_P2
2022/07/17 00:00:42;;;;;;;1.98;0.20;;;15.40;99.90;;;;;;5030369;28;20034;-67
2022/07/17 00:03:13;;;;;;;4.10;0.40;;;15.40;99.90;;;;;;5027235;28;20041;-68
2022/07/17 00:05:38;;;;;;;;;;;15.30;99.90;;;;;;5025824;28;20033;-69
2022/07/17 00:08:06;;;;;;;2.17;0.32;;;15.30;99.90;;;;;;5029534;28;19913;-70
2022/07/17 00:10:32;;;;;;;1.38;0.40;;;15.30;99.90;;;;;;5030198;28;20040;-66
2022/07/17 00:12:57;;;;;;;2.60;0.20;;;15.20;99.90;;;;;;5030790;28;20057;-69
2022/07/17 00:15:23;;;;;;;4.45;0.40;;;15.10;99.90;;;;;;5030094;28;20064;-70
2022/07/17 00:17:49;;;;;;;1.88;0.40;;;15.10;99.90;;;;;;5030814;28;20620;-70
2022/07/17 00:20:14;;;;;;;1.58;0.30;;;15.10;99.90;;;;;;5030669;28;20037;-69
2022/07/17 00:22:42;;;;;;;1.33;0.32;;;15.10;99.90;;;;;;5029829;28;20033;-70
2022/07/17 00:25:09;;;;;;;3.08;0.35;;;15.00;99.90;;;;;;5030285;28;20112;-70
2022/07/17 00:27:35;;;;;;;2.58;0.20;;;15.00;99.90;;;;;;5027904;28;20091;-70
2022/07/17 00:30:01;;;;;;;2.75;0.30;;;15.00;99.90;;;;;;5029726;28;20029;-70
2022/07/17 00:32:27;;;;;;;2.85;0.50;;;15.00;99.90;;;;;;5029371;28;20040;-69
2022/07/17 00:34:52;;;;;;;14.25;1.05;;;14.90;99.90;;;;;;5029176;28;20052;-70
2022/07/17 00:37:18;;;;;;;6.53;0.57;;;14.90;99.90;;;;;;5030652;28;20037;-70
2022/07/17 00:39:44;;;;;;;1.50;0.40;;;14.90;99.90;;;;;;5029318;28;20041;-70
2022/07/17 00:42:13;;;;;;;3.67;0.47;;;14.80;99.90;;;;;;5030573;28;20029;-71
2022/07/17 00:44:40;;;;;;;0.35;0.30;;;14.80;99.90;;;;;;5028105;28;20037;-71
2022/07/17 00:47:14;;;;;;;4.72;0.40;;;14.70;99.90;;;;;;5030368;28;20503;-70
2022/07/17 00:49:40;;;;;;;4.00;0.45;;;14.70;99.90;;;;;;5024680;28;20500;-71
2022/07/17 00:52:06;;;;;;;4.40;0.63;;;14.70;99.90;;;;;;5030081;28;20497;-71
2022/07/17 00:54:37;;;;;;;4.85;0.90;;;14.70;99.90;;;;;;5028807;28;20410;-70
2022/07/17 00:57:06;;;;;;;1.30;0.40;;;14.60;99.90;;;;;;5026053;28;20038;-70
2022/07/17 00:59:33;;;;;;;3.88;0.68;;;14.60;99.90;;;;;;5028928;28;20174;-70
2022/07/17 01:01:59;;;;;;;1.27;0.43;;;14.60;99.90;;;;;;5029892;28;20041;-67
2022/07/17 01:04:24;;;;;;;4.90;0.52;;;14.60;99.90;;;;;;5028635;28;20116;-71
2022/07/17 01:06:50;;;;;;;2.60;0.60;;;14.50;99.90;;;;;;5029781;28;20096;-69
2022/07/17 01:09:16;;;;;;;2.70;0.40;;;14.50;99.90;;;;;;5029945;28;20033;-70
2022/07/17 01:11:42;;;;;;;0.95;0.30;;;14.50;99.90;;;;;;5029079;28;20117;-70
2022/07/17 01:14:08;;;;;;;4.15;0.98;;;14.50;99.90;;;;;;5028216;28;20033;-70
2022/07/17 01:16:33;;;;;;;4.82;0.95;;;14.50;99.90;;;;;;5029071;28;20413;-69
2022/07/17 01:18:59;;;;;;;5.13;0.93;;;14.40;99.90;;;;;;5029245;28;20422;-67
2022/07/17 01:21:25;;;;;;;8.15;1.10;;;14.40;99.90;;;;;;5036250;28;20045;-70
2022/07/17 01:23:50;;;;;;;1.70;0.40;;;14.40;99.90;;;;;;5031334;28;20049;-70
2022/07/17 01:26:16;;;;;;;1.38;0.43;;;14.40;99.90;;;;;;5032219;28;20029;-70
2022/07/17 01:28:41;;;;;;;3.70;0.50;;;14.40;99.90;;;;;;5029985;28;21149;-70
2022/07/17 01:31:07;;;;;;;5.07;1.15;;;14.40;99.90;;;;;;5028214;28;20033;-67
2022/07/17 01:33:32;;;;;;;5.70;0.93;;;14.40;99.90;;;;;;5028521;28;20030;-70
2022/07/17 01:35:58;;;;;;;2.67;0.75;;;14.30;99.90;;;;;;5033206;28;20044;-68
2022/07/17 01:38:24;;;;;;;0.80;0.40;;;14.30;99.90;;;;;;5027501;28;20108;-70
2022/07/17 01:40:51;;;;;;;3.80;0.43;;;14.20;99.90;;;;;;5029379;28;20112;-69
2022/07/17 01:43:17;;;;;;;6.55;0.95;;;14.20;99.90;;;;;;5028778;28;20044;-67
2022/07/17 01:45:42;;;;;;;3.63;0.70;;;14.20;99.90;;;;;;5028283;28;20037;-70
2022/07/17 01:48:08;;;;;;;3.67;0.40;;;14.20;99.90;;;;;;5029444;28;20049;-69
2022/07/17 01:50:34;;;;;;;3.90;0.95;;;14.20;99.90;;;;;;5027332;28;20078;-67
2022/07/17 01:53:00;;;;;;;2.97;0.70;;;14.20;99.90;;;;;;5027233;28;20048;-68
2022/07/17 01:55:26;;;;;;;1.63;0.25;;;14.20;99.90;;;;;;5027088;28;20493;-71
2022/07/17 01:57:51;;;;;;;4.35;0.40;;;14.10;99.90;;;;;;5028754;28;20570;-68
2022/07/17 02:00:18;;;;;;;4.15;0.30;;;14.10;99.90;;;;;;5029128;28;20064;-66
2022/07/17 02:02:45;;;;;;;2.70;0.80;;;14.10;99.90;;;;;;5028496;28;20044;-69
2022/07/17 02:05:10;;;;;;;2.72;0.40;;;14.10;99.90;;;;;;5029108;28;20057;-70
2022/07/17 02:07:39;;;;;;;3.42;0.50;;;14.00;99.90;;;;;;5028284;28;20567;-68
2022/07/17 02:10:06;;;;;;;3.35;0.43;;;14.00;99.90;;;;;;5026810;28;20048;-67
2022/07/17 02:12:31;;;;;;;4.13;0.40;;;14.00;99.90;;;;;;5027985;28;20037;-69
2022/07/17 02:14:57;;;;;;;4.00;0.80;;;14.00;99.90;;;;;;5027791;28;20037;-70
2022/07/17 02:17:22;;;;;;;9.02;1.23;;;14.00;99.90;;;;;;5031541;28;20126;-68
2022/07/17 02:19:48;;;;;;;0.98;0.35;;;14.00;99.90;;;;;;5033255;28;20507;-70
2022/07/17 02:22:14;;;;;;;2.97;0.47;;;14.00;99.90;;;;;;5031697;28;20068;-71
2022/07/17 02:24:39;;;;;;;2.03;0.47;;;13.90;99.90;;;;;;5031618;28;20040;-72
2022/07/17 02:27:05;;;;;;;5.20;0.47;;;13.90;99.90;;;;;;5037239;28;20029;-68
2022/07/17 02:29:30;;;;;;;1.05;0.45;;;13.90;99.90;;;;;;5031876;28;20037;-68
2022/07/17 02:31:56;;;;;;;2.30;0.50;;;13.90;99.90;;;;;;5032755;28;20079;-71
2022/07/17 02:34:21;;;;;;;1.67;0.40;;;13.90;99.90;;;;;;5032168;28;20041;-70
2022/07/17 02:36:47;;;;;;;5.75;0.60;;;13.90;99.90;;;;;;5032236;28;20037;-69
2022/07/17 02:39:12;;;;;;;3.13;0.60;;;13.90;99.90;;;;;;5032399;28;20037;-72
2022/07/17 02:41:38;;;;;;;7.13;0.75;;;13.90;99.90;;;;;;5031673;28;20035;-70
2022/07/17 02:44:04;;;;;;;2.15;0.50;;;13.90;99.90;;;;;;5030994;28;20033;-70
2022/07/17 02:46:30;;;;;;;3.78;0.45;;;13.90;99.90;;;;;;5030432;28;20025;-70
2022/07/17 02:48:55;;;;;;;3.55;0.40;;;13.90;99.90;;;;;;5031197;28;20741;-70
2022/07/17 02:51:21;;;;;;;7.43;1.13;;;13.90;99.90;;;;;;5030767;28;20046;-70
2022/07/17 02:53:46;;;;;;;4.10;0.47;;;13.90;99.90;;;;;;5031417;28;20113;-68
2022/07/17 02:56:12;;;;;;;2.97;0.45;;;13.90;99.90;;;;;;5032356;28;20080;-71
2022/07/17 02:58:38;;;;;;;2.30;0.93;;;13.90;99.90;;;;;;5029748;28;20040;-70
2022/07/17 03:01:03;;;;;;;2.80;0.65;;;13.90;99.90;;;;;;5031124;28;20441;-66
2022/07/17 03:03:29;;;;;;;2.83;0.40;;;13.90;99.90;;;;;;5030031;28;20044;-70
2022/07/17 03:05:54;;;;;;;1.70;0.30;;;13.90;99.90;;;;;;5032016;28;20040;-70
2022/07/17 03:08:20;;;;;;;1.02;0.40;;;13.90;99.90;;;;;;5032152;28;20096;-69
2022/07/17 03:10:46;;;;;;;0.77;0.30;;;13.80;99.90;;;;;;5031085;28;20719;-67
2022/07/17 03:13:11;;;;;;;4.40;0.88;;;13.80;99.90;;;;;;5030869;28;20124;-70
2022/07/17 03:15:37;;;;;;;4.85;0.35;;;13.80;99.90;;;;;;5031188;28;20401;-68
2022/07/17 03:18:03;;;;;;;3.05;0.85;;;13.80;99.90;;;;;;5031866;28;20033;-67
2022/07/17 03:20:29;;;;;;;1.65;0.60;;;13.70;99.90;;;;;;5031023;28;20471;-67
2022/07/17 03:22:54;;;;;;;2.60;0.50;;;13.70;99.90;;;;;;5031729;28;20061;-70
2022/07/17 03:25:20;;;;;;;1.90;0.43;;;13.70;99.90;;;;;;5034259;28;20047;-71
2022/07/17 03:27:45;;;;;;;4.78;0.70;;;13.70;99.90;;;;;;5030800;28;20041;-69
2022/07/17 03:30:11;;;;;;;1.60;0.30;;;13.70;99.90;;;;;;5031919;28;20506;-66
2022/07/17 03:32:36;;;;;;;5.07;0.52;;;13.70;99.90;;;;;;5030481;28;20402;-68
2022/07/17 03:35:04;;;;;;;0.73;0.22;;;13.60;99.90;;;;;;5032036;28;20136;-67
2022/07/17 03:37:29;;;;;;;2.05;0.40;;;13.60;99.90;;;;;;5030805;28;20042;-70
2022/07/17 03:39:55;;;;;;;5.13;1.08;;;13.60;99.90;;;;;;5028847;28;20036;-70
2022/07/17 03:42:20;;;;;;;3.38;0.68;;;13.60;99.90;;;;;;5030994;28;20033;-68
2022/07/17 03:44:46;;;;;;;1.25;0.22;;;13.60;99.90;;;;;;5030419;28;20455;-70
2022/07/17 03:47:12;;;;;;;3.95;0.80;;;13.60;99.90;;;;;;5029620;28;20030;-70
2022/07/17 03:49:38;;;;;;;4.38;0.55;;;13.60;99.90;;;;;;5029141;28;20032;-68
2022/07/17 03:52:04;;;;;;;2.67;0.50;;;13.60;99.90;;;;;;5031046;28;20029;-69
2022/07/17 03:54:29;;;;;;;4.22;0.85;;;13.60;99.90;;;;;;5030423;28;20021;-70
2022/07/17 03:56:55;;;;;;;7.07;0.55;;;13.70;99.90;;;;;;5030863;28;20025;-70
2022/07/17 03:59:20;;;;;;;6.65;0.38;;;13.60;99.90;;;;;;5031408;28;20401;-70
2022/07/17 04:01:46;;;;;;;2.13;0.40;;;13.70;99.90;;;;;;5028991;28;20466;-70
2022/07/17 04:04:11;;;;;;;3.65;0.40;;;13.60;99.90;;;;;;5029509;28;20032;-71
2022/07/17 04:06:37;;;;;;;2.20;0.40;;;13.60;99.90;;;;;;5030348;28;20469;-68
2022/07/17 04:09:04;;;;;;;1.45;0.40;;;13.60;99.90;;;;;;5030823;28;20562;-67
2022/07/17 04:11:29;;;;;;;4.00;0.47;;;13.60;99.90;;;;;;5029980;28;20053;-69
2022/07/17 04:13:55;;;;;;;2.10;0.47;;;13.50;99.90;;;;;;5030633;28;20060;-70
2022/07/17 04:16:20;;;;;;;5.18;0.60;;;13.50;99.90;;;;;;5030600;28;20029;-70
2022/07/17 04:18:46;;;;;;;4.53;0.68;;;13.50;99.90;;;;;;5029009;28;20044;-70
2022/07/17 04:21:13;;;;;;;3.13;0.30;;;13.50;99.90;;;;;;5029493;28;20030;-69
2022/07/17 04:23:39;;;;;;;1.90;0.30;;;13.60;99.90;;;;;;5028801;28;20037;-67
2022/07/17 04:26:08;;;;;;;4.47;0.47;;;13.50;99.90;;;;;;5032673;28;20083;-67
2022/07/17 04:28:34;;;;;;;1.25;0.28;;;13.60;99.90;;;;;;5027780;28;20034;-68
2022/07/17 04:31:01;;;;;;;1.90;0.40;;;13.60;99.90;;;;;;5028327;28;20045;-71
2022/07/17 04:33:27;;;;;;;2.95;0.43;;;13.70;99.90;;;;;;5028875;28;20033;-71
2022/07/17 04:35:52;;;;;;;3.17;0.40;;;13.70;99.90;;;;;;5030096;28;20505;-69
2022/07/17 04:38:18;;;;;;;3.40;0.47;;;13.70;99.90;;;;;;5029304;28;20030;-68
2022/07/17 04:40:44;;;;;;;7.07;0.70;;;13.70;99.90;;;;;;5028691;28;20030;-69
2022/07/17 04:43:09;;;;;;;2.42;0.40;;;13.80;99.90;;;;;;5029612;28;20105;-68
2022/07/17 04:45:35;;;;;;;3.65;1.00;;;13.80;99.90;;;;;;5028674;28;20037;-69
2022/07/17 04:48:01;;;;;;;3.78;0.70;;;13.80;99.90;;;;;;5029830;28;20044;-70
2022/07/17 04:50:27;;;;;;;2.88;0.82;;;13.80;99.90;;;;;;5028670;28;20037;-68
2022/07/17 04:52:53;;;;;;;2.70;0.52;;;13.90;99.90;;;;;;5029703;28;20037;-69
2022/07/17 04:55:18;;;;;;;1.98;0.40;;;13.90;99.90;;;;;;5028385;28;20033;-68
2022/07/17 04:57:44;;;;;;;1.88;0.35;;;14.00;99.90;;;;;;5027437;28;20048;-70
2022/07/17 05:00:11;;;;;;;4.82;0.40;;;14.00;99.90;;;;;;5028289;28;20046;-66
2022/07/17 05:02:37;;;;;;;4.63;0.47;;;14.10;99.90;;;;;;5028809;28;20060;-69
2022/07/17 05:05:03;;;;;;;2.28;0.20;;;14.20;99.90;;;;;;5029844;28;20045;-70
2022/07/17 05:07:29;;;;;;;1.33;0.28;;;14.20;99.90;;;;;;5027565;28;20117;-70
2022/07/17 05:09:54;;;;;;;2.50;0.50;;;14.30;99.90;;;;;;5028380;28;20136;-68
2022/07/17 05:12:20;;;;;;;1.02;0.28;;;14.30;99.90;;;;;;5029701;28;20497;-70
2022/07/17 05:14:46;;;;;;;3.28;0.43;;;14.40;99.90;;;;;;5028776;28;20382;-70
2022/07/17 05:17:11;;;;;;;2.60;0.75;;;14.50;99.90;;;;;;5025869;28;20462;-70
2022/07/17 05:19:37;;;;;;;0.70;0.30;;;14.50;99.90;;;;;;5028802;28;20057;-67
2022/07/17 05:22:04;;;;;;;1.30;0.32;;;14.70;99.90;;;;;;5029712;28;20057;-71
2022/07/17 05:24:29;;;;;;;1.80;0.63;;;14.80;99.90;;;;;;5028531;28;20029;-72
2022/07/17 05:26:55;;;;;;;2.88;0.52;;;14.90;99.90;;;;;;5031621;28;20032;-70
2022/07/17 05:29:21;;;;;;;0.82;0.20;;;15.10;99.90;;;;;;5029337;28;20465;-67
2022/07/17 05:31:46;;;;;;;3.85;0.50;;;15.10;99.90;;;;;;5028818;28;20095;-70
2022/07/17 05:34:12;;;;;;;5.28;0.80;;;15.20;99.90;;;;;;5027848;28;20057;-70
2022/07/17 05:36:38;;;;;;;2.90;0.55;;;15.30;99.90;;;;;;5028503;28;20505;-70
2022/07/17 05:39:03;;;;;;;3.53;0.50;;;15.40;99.90;;;;;;5029413;28;20045;-70
2022/07/17 05:41:29;;;;;;;9.43;0.60;;;15.40;99.90;;;;;;5028768;28;20041;-68
2022/07/17 05:43:55;;;;;;;2.05;0.32;;;15.40;99.90;;;;;;5028684;28;20045;-67
2022/07/17 05:46:20;;;;;;;1.05;0.20;;;15.50;99.90;;;;;;5029470;28;20029;-68
2022/07/17 05:48:46;;;;;;;4.68;0.38;;;15.50;99.90;;;;;;5028486;28;20030;-69
2022/07/17 05:51:11;;;;;;;2.42;0.40;;;15.40;99.90;;;;;;5028407;28;20025;-70
2022/07/17 05:53:37;;;;;;;2.22;0.47;;;15.50;99.90;;;;;;5025940;28;20080;-67
2022/07/17 05:56:02;;;;;;;5.63;0.68;;;15.60;99.90;;;;;;5027513;28;20406;-70
2022/07/17 05:58:28;;;;;;;6.72;0.68;;;15.80;99.90;;;;;;5026676;28;20030;-70
2022/07/17 06:00:53;;;;;;;4.70;0.40;;;16.20;99.90;;;;;;5029439;28;20037;-66
2022/07/17 06:03:19;;;;;;;3.63;0.50;;;16.50;99.90;;;;;;5027450;28;20037;-71
2022/07/17 06:05:45;;;;;;;2.00;0.20;;;16.70;99.90;;;;;;5027402;28;20460;-70
2022/07/17 06:08:10;;;;;;;2.55;0.35;;;17.00;99.90;;;;;;5027693;28;20037;-70
2022/07/17 06:10:38;;;;;;;4.28;0.40;;;17.10;99.90;;;;;;5026474;28;20032;-67
2022/07/17 06:13:04;;;;;;;3.00;0.45;;;17.40;99.90;;;;;;5028169;28;20092;-71
2022/07/17 06:15:29;;;;;;;1.58;0.35;;;17.60;99.90;;;;;;5027441;28;20029;-70
2022/07/17 06:17:55;;;;;;;3.03;0.60;;;17.80;99.90;;;;;;5027932;28;20033;-69
2022/07/17 06:20:20;;;;;;;3.40;0.30;;;18.00;99.90;;;;;;5027920;28;20034;-68
2022/07/17 06:22:46;;;;;;;2.13;0.50;;;17.90;99.90;;;;;;5025145;28;20038;-70
2022/07/17 06:25:12;;;;;;;3.17;0.45;;;17.90;99.90;;;;;;5026628;28;20128;-70
2022/07/17 06:27:42;;;;;;;0.93;0.40;;;17.90;99.90;;;;;;5028116;28;20061;-68
2022/07/17 06:30:13;;;;;;;8.32;1.23;;;17.90;99.90;;;;;;5027702;28;20080;-67
2022/07/17 06:32:39;;;;;;;1.20;0.30;;;17.90;99.90;;;;;;5026279;28;20038;-67
2022/07/17 06:35:05;;;;;;;2.78;0.55;;;18.00;99.90;;;;;;5027965;28;20026;-70
2022/07/17 06:37:30;;;;;;;2.97;0.55;;;18.20;99.60;;;;;;5026989;28;20042;-70
2022/07/17 06:39:56;;;;;;;3.38;0.50;;;18.30;99.30;;;;;;5027622;28;20083;-69
2022/07/17 06:42:21;;;;;;;3.15;0.82;;;18.50;99.90;;;;;;5028058;28;20120;-71
2022/07/17 06:44:47;;;;;;;3.90;0.57;;;18.60;99.80;;;;;;5026001;28;20073;-70
2022/07/17 06:47:13;;;;;;;2.55;0.40;;;18.80;99.40;;;;;;5027015;28;20552;-68
2022/07/17 06:49:38;;;;;;;2.97;0.35;;;19.00;98.00;;;;;;5026890;28;20029;-68
2022/07/17 06:52:04;;;;;;;4.57;0.90;;;19.30;98.40;;;;;;5028316;28;20049;-70
2022/07/17 06:54:30;;;;;;;3.80;0.20;;;19.50;98.20;;;;;;5027058;28;20029;-71
2022/07/17 06:56:55;;;;;;;3.25;0.32;;;19.90;96.80;;;;;;5027279;28;20099;-70
2022/07/17 06:59:21;;;;;;;3.72;0.30;;;20.20;99.20;;;;;;5028168;28;20034;-72
2022/07/17 07:01:47;;;;;;;3.08;0.40;;;20.50;97.70;;;;;;5025888;28;20037;-71
2022/07/17 07:04:13;;;;;;;2.88;0.75;;;20.70;97.10;;;;;;5026489;28;20036;-69
2022/07/17 07:06:39;;;;;;;1.90;0.65;;;20.80;96.70;;;;;;5030686;28;20033;-67
2022/07/17 07:09:04;;;;;;;0.70;0.38;;;20.90;95.70;;;;;;5030985;28;20405;-71
2022/07/17 07:11:30;;;;;;;3.50;0.47;;;21.00;98.70;;;;;;5030169;28;20039;-70
2022/07/17 07:13:56;;;;;;;1.50;0.30;;;21.20;96.50;;;;;;5031288;28;20036;-72
2022/07/17 07:16:21;;;;;;;2.47;0.25;;;21.80;96.80;;;;;;5025960;28;20022;-68
2022/07/17 07:18:47;;;;;;;3.35;0.65;;;22.40;94.00;;;;;;5025843;28;20044;-69
2022/07/17 07:21:12;;;;;;;1.48;0.40;;;23.00;92.80;;;;;;5036105;28;20029;-68
2022/07/17 07:23:38;;;;;;;12.13;0.63;;;23.40;94.10;;;;;;5032370;28;20065;-69
2022/07/17 07:26:04;;;;;;;1.67;0.38;;;23.50;92.50;;;;;;5031124;28;20049;-71
2022/07/17 07:28:29;;;;;;;3.13;0.68;;;23.60;93.00;;;;;;5029670;28;20083;-70
2022/07/17 07:30:55;;;;;;;3.28;0.20;;;23.70;93.50;;;;;;5030300;28;20034;-68
2022/07/17 07:33:20;;;;;;;4.55;0.70;;;24.00;93.00;;;;;;5027336;28;20046;-70
2022/07/17 07:35:46;;;;;;;1.35;0.45;;;24.60;90.70;;;;;;5032269;28;20116;-71
2022/07/17 07:38:11;;;;;;;1.55;0.50;;;25.20;90.10;;;;;;5023396;28;20037;-72
2022/07/17 07:40:37;;;;;;;1.77;1.02;;;25.60;88.70;;;;;;5026948;28;20066;-69
2022/07/17 07:43:03;;;;;;;3.55;0.70;;;26.00;89.10;;;;;;5027165;28;20125;-71
2022/07/17 07:45:28;;;;;;;1.15;0.50;;;26.80;87.10;;;;;;5027464;28;20099;-69
2022/07/17 07:47:54;;;;;;;3.63;0.73;;;27.60;84.70;;;;;;5028291;28;20087;-67
2022/07/17 07:50:23;;;;;;;4.63;1.40;;;28.30;80.60;;;;;;5029040;28;20036;-70
2022/07/17 07:52:49;;;;;;;1.33;0.50;;;28.60;78.60;;;;;;5029276;28;20630;-71
2022/07/17 07:55:15;;;;;;;3.15;0.85;;;29.30;75.10;;;;;;5031141;28;20118;-70
2022/07/17 07:57:41;;;;;;;3.65;0.80;;;29.20;76.60;;;;;;5027492;28;20037;-68
2022/07/17 08:00:08;;;;;;;4.38;0.90;;;29.80;73.10;;;;;;5028895;28;20394;-67
2022/07/17 08:02:34;;;;;;;1.70;0.40;;;29.90;73.80;;;;;;5027147;28;20049;-71
2022/07/17 08:05:00;;;;;;;3.03;0.73;;;29.70;72.10;;;;;;5028912;28;20488;-68
2022/07/17 08:07:27;;;;;;;6.10;1.00;;;29.30;71.30;;;;;;5029259;28;20041;-70
2022/07/17 08:09:53;;;;;;;1.52;0.50;;;28.90;71.30;;;;;;5029431;28;20069;-71
2022/07/17 08:12:18;;;;;;;4.55;1.02;;;28.40;71.80;;;;;;5030356;28;20029;-72
2022/07/17 08:14:44;;;;;;;4.13;0.65;;;27.70;71.30;;;;;;5027303;28;20382;-70
2022/07/17 08:17:09;;;;;;;1.48;0.30;;;26.90;72.20;;;;;;5029799;28;20037;-71
2022/07/17 08:19:35;;;;;;;1.63;0.25;;;26.20;73.80;;;;;;5029384;28;20041;-69
2022/07/17 08:22:01;;;;;;;1.23;0.30;;;25.60;74.00;;;;;;5029069;28;20076;-68
2022/07/17 08:24:26;;;;;;;3.45;0.40;;;25.00;75.60;;;;;;5029129;28;20032;-70
2022/07/17 08:26:52;;;;;;;2.17;0.55;;;24.50;77.20;;;;;;5029496;28;20030;-70
2022/07/17 08:29:17;;;;;;;3.40;0.80;;;24.30;79.50;;;;;;5032047;28;20021;-68
2022/07/17 08:31:43;;;;;;;6.07;0.65;;;24.30;79.80;;;;;;5028472;28;20045;-70
2022/07/17 08:34:09;;;;;;;1.73;0.43;;;24.30;79.70;;;;;;5027170;28;20078;-70
2022/07/17 08:36:34;;;;;;;3.22;0.40;;;24.30;78.80;;;;;;5027388;28;20068;-69
2022/07/17 08:39:00;;;;;;;4.82;0.65;;;24.00;80.00;;;;;;5027293;28;20408;-71
2022/07/17 08:41:28;;;;;;;5.22;0.60;;;23.90;80.00;;;;;;5027775;28;20474;-70
2022/07/17 08:43:54;;;;;;;2.25;0.47;;;23.80;80.20;;;;;;5029505;28;20113;-69
2022/07/17 08:46:23;;;;;;;5.28;0.40;;;23.70;80.50;;;;;;5029580;28;20029;-70
2022/07/17 08:48:52;;;;;;;1.85;0.28;;;23.50;80.20;;;;;;5036082;28;20180;-68
2022/07/17 08:51:18;;;;;;;4.82;0.55;;;23.60;79.80;;;;;;5029679;28;20040;-68
2022/07/17 08:53:44;;;;;;;2.42;0.60;;;23.60;81.60;;;;;;5028663;28;20041;-70
2022/07/17 08:56:10;;;;;;;2.92;0.75;;;23.50;79.80;;;;;;5029806;28;20030;-70
2022/07/17 08:58:36;;;;;;;0.95;0.35;;;23.30;79.30;;;;;;5024600;28;20034;-68
2022/07/17 09:01:02;;;;;;;4.28;0.52;;;23.40;80.40;;;;;;5029531;28;20029;-70
2022/07/17 09:03:28;;;;;;;2.60;0.40;;;23.50;79.50;;;;;;5028068;28;20081;-70
2022/07/17 09:05:54;;;;;;;1.35;0.50;;;23.50;81.10;;;;;;5029299;28;20045;-70
2022/07/17 09:08:21;;;;;;;1.95;0.52;;;23.50;81.60;;;;;;5027780;28;20025;-68
2022/07/17 09:10:51;;;;;;;1.75;0.52;;;23.60;81.50;;;;;;5028764;28;20049;-67
2022/07/17 09:13:29;;;;;;;4.03;0.50;;;23.50;80.50;;;;;;5027754;28;20037;-70
2022/07/17 09:16:07;;;;;;;2.13;0.30;;;23.60;81.20;;;;;;5028968;28;20057;-70
2022/07/17 09:18:46;;;;;;;0.98;0.25;;;23.60;79.90;;;;;;5028104;28;20042;-70
2022/07/17 09:21:24;;;;;;;1.83;0.40;;;23.70;80.80;;;;;;5024908;28;20037;-69
2022/07/17 09:24:16;;;;;;;1.90;0.30;;;23.70;81.40;;;;;;5026196;28;20041;-66
2022/07/17 09:26:47;;;;;;;5.53;0.40;;;23.60;80.20;;;;;;5038405;28;20033;-69
2022/07/17 09:29:12;;;;;;;1.60;0.57;;;23.50;80.50;;;;;;5030782;28;20025;-69
2022/07/17 09:31:38;;;;;;;0.88;0.22;;;23.60;82.20;;;;;;5028270;28;20025;-71
2022/07/17 09:34:04;;;;;;;1.88;0.80;;;23.50;80.20;;;;;;5022748;28;20782;-70
2022/07/17 09:36:30;;;;;;;1.30;0.20;;;23.70;81.40;;;;;;5025806;28;20045;-70
2022/07/17 09:38:57;;;;;;;2.15;0.45;;;23.80;79.00;;;;;;5028205;28;20037;-68
2022/07/17 09:41:25;;;;;;;4.55;0.65;;;23.80;79.70;;;;;;5023208;28;20060;-71
2022/07/17 09:43:57;;;;;;;3.08;0.70;;;23.90;80.10;;;;;;5024660;28;20040;-69
2022/07/17 09:46:28;;;;;;;1.77;0.30;;;23.80;80.00;;;;;;5027269;28;20033;-70
2022/07/17 09:48:57;;;;;;;1.45;0.40;;;23.90;80.70;;;;;;5026604;28;20030;-70
2022/07/17 09:51:27;;;;;;;2.03;0.30;;;24.00;81.00;;;;;;5027211;28;20037;-68
2022/07/17 09:53:58;;;;;;;2.78;0.30;;;23.90;80.20;;;;;;5027949;28;20038;-69
2022/07/17 09:56:28;;;;;;;4.22;0.30;;;23.90;80.30;;;;;;5028283;28;20172;-69
2022/07/17 09:58:56;;;;;;;;;;;23.90;80.80;;;;;;5028760;28;20034;-70
2022/07/17 10:01:23;;;;;;;2.53;0.40;;;23.80;79.70;;;;;;5028300;28;20345;-70
2022/07/17 10:03:50;;;;;;;0.85;0.22;;;23.80;78.80;;;;;;5027486;28;20041;-71
2022/07/17 10:06:15;;;;;;;1.70;0.47;;;24.00;80.30;;;;;;5028563;28;20048;-71
2022/07/17 10:08:41;;;;;;;1.02;0.30;;;24.00;80.00;;;;;;5027818;28;20402;-67
2022/07/17 10:11:08;;;;;;;1.17;0.35;;;24.10;78.10;;;;;;5027225;28;20053;-69
2022/07/17 10:13:39;;;;;;;2.45;0.30;;;24.20;79.40;;;;;;5026884;28;20513;-69
2022/07/17 10:16:07;;;;;;;0.88;0.30;;;24.30;77.70;;;;;;5024702;28;20084;-72
2022/07/17 10:18:42;;;;;;;1.17;0.40;;;24.40;76.80;;;;;;5031346;28;20034;-72
2022/07/17 10:21:17;;;;;;;0.70;0.30;;;24.60;78.30;;;;;;5025240;28;20029;-70
2022/07/17 10:24:07;;;;;;;1.65;0.30;;;24.60;79.30;;;;;;5025674;28;20119;-67
2022/07/17 10:26:36;;;;;;;1.42;0.55;;;24.80;77.50;;;;;;5026762;28;20025;-71
2022/07/17 10:29:06;;;;;;;2.92;0.45;;;24.60;76.90;;;;;;5026565;28;20168;-71
2022/07/17 10:31:32;;;;;;;1.42;0.55;;;24.60;78.10;;;;;;5023474;28;20049;-69
2022/07/17 10:34:02;;;;;;;1.88;0.50;;;24.60;78.20;;;;;;5026603;28;20026;-69
2022/07/17 10:36:39;;;;;;;2.25;0.70;;;24.60;77.90;;;;;;5026263;28;20026;-71
2022/07/17 10:39:20;;;;;;;1.00;0.32;;;24.60;76.90;;;;;;5023273;28;20029;-71
2022/07/17 10:41:59;;;;;;;2.42;0.52;;;24.80;75.70;;;;;;5029327;28;20160;-68
2022/07/17 10:44:27;;;;;;;0.70;0.40;;;24.90;78.20;;;;;;5031663;28;20044;-67
2022/07/17 10:46:55;;;;;;;1.35;0.30;;;24.90;76.80;;;;;;5030369;28;20026;-71
2022/07/17 10:49:22;;;;;;;1.05;0.57;;;24.80;76.60;;;;;;5029432;28;20167;-71
2022/07/17 10:51:48;;;;;;;1.20;0.30;;;24.80;78.20;;;;;;5031167;28;20033;-71
2022/07/17 10:54:13;;;;;;;2.65;0.80;;;24.80;74.60;;;;;;5031830;28;20511;-71
2022/07/17 10:56:40;;;;;;;3.10;0.50;;;25.00;74.00;;;;;;5031034;28;20033;-71
2022/07/17 10:59:06;;;;;;;5.22;0.88;;;25.10;76.70;;;;;;5030440;28;20025;-69
2022/07/17 11:01:32;;;;;;;1.00;0.28;;;25.20;75.70;;;;;;5029070;28;20520;-72
2022/07/17 11:04:01;;;;;;;1.90;0.60;;;25.30;77.40;;;;;;5030206;28;20037;-68
2022/07/17 11:06:30;;;;;;;1.77;0.50;;;25.30;76.40;;;;;;5031424;28;20033;-68
2022/07/17 11:08:58;;;;;;;2.25;0.85;;;25.30;75.10;;;;;;5029980;28;20387;-67
2022/07/17 11:11:59;;;;;;;2.35;0.50;;;25.40;74.40;;;;;;5030111;28;20116;-71
2022/07/17 11:14:26;;;;;;;2.28;0.40;;;25.20;74.10;;;;;;4968821;28;20097;-70
2022/07/17 11:16:53;;;;;;;1.30;0.65;;;25.20;75.90;;;;;;5014053;28;20061;-71
2022/07/17 11:19:21;;;;;;;1.25;0.50;;;25.20;77.10;;;;;;5031651;28;20038;-71
2022/07/17 11:21:49;;;;;;;1.13;0.55;;;25.20;75.10;;;;;;5030448;28;20060;-71
2022/07/17 11:24:15;;;;;;;0.82;0.30;;;25.20;74.00;;;;;;5030999;28;20058;-70
2022/07/17 11:26:43;;;;;;;0.80;0.38;;;25.20;75.60;;;;;;5033374;28;20060;-70
2022/07/17 11:29:08;;;;;;;2.55;0.68;;;25.40;75.30;;;;;;5032284;28;20026;-70
2022/07/17 11:31:35;;;;;;;2.70;0.90;;;25.60;76.00;;;;;;5030213;28;20096;-70
2022/07/17 11:34:03;;;;;;;2.22;0.65;;;25.80;76.80;;;;;;5031053;28;20028;-69
2022/07/17 11:36:41;;;;;;;2.00;0.73;;;25.90;75.70;;;;;;5025212;28;20552;-68
2022/07/17 11:39:12;;;;;;;1.70;0.80;;;25.90;74.30;;;;;;5035250;28;20030;-70
2022/07/17 11:41:40;;;;;;;2.38;0.65;;;26.00;73.90;;;;;;5029340;28;20045;-70
2022/07/17 11:44:10;;;;;;;2.90;0.90;;;26.00;72.10;;;;;;5030542;28;20037;-69
2022/07/17 11:46:36;;;;;;;4.90;0.65;;;25.80;74.30;;;;;;5030038;28;20025;-71
2022/07/17 11:49:03;;;;;;;2.70;0.70;;;25.80;74.60;;;;;;5028202;28;20030;-71
2022/07/17 11:51:43;;;;;;;1.15;0.35;;;25.80;73.50;;;;;;5030262;28;20032;-69
2022/07/17 11:54:12;;;;;;;1.83;0.82;;;25.80;74.70;;;;;;5030302;28;20040;-71
2022/07/17 11:56:38;;;;;;;2.33;0.90;;;25.70;75.30;;;;;;5028316;28;20448;-71
2022/07/17 11:59:06;;;;;;;1.00;0.60;;;25.80;74.80;;;;;;5027604;28;20037;-71
2022/07/17 12:02:08;;;;;;;1.55;0.82;;;25.90;75.40;;;;;;5028109;28;20036;-69
2022/07/17 12:04:33;;;;;;;2.15;1.15;;;26.00;73.40;;;;;;5027596;28;20034;-70
2022/07/17 12:07:01;;;;;;;1.75;0.77;;;26.10;73.00;;;;;;5030810;28;20378;-69
2022/07/17 12:09:28;;;;;;;1.70;0.70;;;26.00;74.20;;;;;;5026219;28;20091;-70
2022/07/17 12:11:53;;;;;;;4.68;1.40;;;26.00;74.00;;;;;;5028637;28;20030;-67
2022/07/17 12:14:19;;;;;;;1.77;0.75;;;25.90;74.70;;;;;;5026377;28;20120;-70
2022/07/17 12:16:45;;;;;;;1.67;0.80;;;25.90;74.80;;;;;;5029774;28;20056;-68
2022/07/17 12:19:16;;;;;;;3.25;1.02;;;25.90;74.50;;;;;;5026437;28;20064;-70
2022/07/17 12:21:59;;;;;;;2.97;0.90;;;25.80;76.20;;;;;;5028313;28;20068;-70
2022/07/17 12:24:39;;;;;;;1.63;0.73;;;25.80;74.50;;;;;;5024505;28;20169;-68
2022/07/17 12:27:14;;;;;;;2.28;0.80;;;25.60;72.30;;;;;;5025386;28;20116;-71
2022/07/17 12:29:44;;;;;;;1.90;1.00;;;25.60;73.50;;;;;;5028231;28;20026;-70
2022/07/17 12:32:11;;;;;;;3.80;1.00;;;25.50;75.70;;;;;;5029306;28;20041;-69
2022/07/17 12:34:44;;;;;;;4.20;0.93;;;25.60;75.80;;;;;;5027875;28;20116;-69
2022/07/17 12:37:14;;;;;;;2.20;0.93;;;25.70;77.30;;;;;;5029521;28;20052;-71
2022/07/17 12:39:39;;;;;;;3.90;1.00;;;25.80;76.00;;;;;;5029331;28;20548;-69
2022/07/17 12:42:07;;;;;;;1.80;0.90;;;25.80;75.10;;;;;;5027716;28;20491;-70
2022/07/17 12:44:33;;;;;;;1.63;0.90;;;25.90;75.10;;;;;;5028957;28;20067;-68
2022/07/17 12:46:59;;;;;;;3.50;1.08;;;25.80;73.60;;;;;;5030054;28;20022;-67